createdAt,value
2023-05-10T00:00:17.401Z,28.35
2023-05-10T00:02:45.427Z,25.67
2023-05-10T00:05:14.587Z,27.95
2023-05-10T00:07:45.630Z,28.37
2023-05-10T00:10:14.192Z,27.17
2023-05-10T00:15:11.014Z,26.03
2023-05-10T00:17:38.848Z,27.93
2023-05-10T00:20:07.690Z,27.50
2023-05-10T00:22:36.752Z,25.53
2023-05-10T00:25:04.689Z,25.23
2023-05-10T00:27:32.422Z,26.15
2023-05-10T00:30:00.185Z,29.57
2023-05-10T00:32:28.043Z,27.45
2023-05-10T00:34:55.856Z,27.55
2023-05-10T00:37:23.776Z,31.42
2023-05-10T00:39:52.779Z,30.70
2023-05-10T00:42:20.489Z,32.60
2023-05-10T00:44:48.629Z,27.00
2023-05-10T00:47:16.505Z,28.85
2023-05-10T00:49:44.818Z,34.60
2023-05-10T00:52:12.772Z,34.17
2023-05-10T00:54:40.644Z,30.33
2023-05-10T00:57:09.798Z,29.88
2023-05-10T00:59:37.788Z,33.97
2023-05-10T01:02:05.729Z,31.58
2023-05-10T01:04:33.699Z,34.35
2023-05-10T01:07:02.038Z,29.77
2023-05-10T01:09:30.070Z,34.33
2023-05-10T01:11:58.785Z,34.70
2023-05-10T01:14:28.711Z,35.47
2023-05-10T01:16:57.187Z,36.87
2023-05-10T01:19:26.977Z,40.03
2023-05-10T01:22:04.564Z,39.43
2023-05-10T01:25:13.377Z,40.90
2023-05-10T01:27:57.739Z,39.87
2023-05-10T01:30:45.076Z,41.53
2023-05-10T01:33:20.851Z,41.43
2023-05-10T01:35:57.414Z,39.80
2023-05-10T01:38:32.643Z,43.43
2023-05-10T01:41:14.176Z,39.67
2023-05-10T01:43:50.457Z,39.17
2023-05-10T01:46:26.818Z,36.50
2023-05-10T01:48:59.486Z,37.03
2023-05-10T01:51:30.969Z,41.23
2023-05-10T01:54:03.406Z,43.40
2023-05-10T01:56:34.098Z,39.43
2023-05-10T01:59:03.517Z,43.93
2023-05-10T02:01:32.122Z,43.10
2023-05-10T02:04:01.913Z,45.13
2023-05-10T02:06:29.608Z,40.73
2023-05-10T02:08:58.485Z,44.87
2023-05-10T02:11:28.372Z,43.90
2023-05-10T02:13:58.348Z,43.27
2023-05-10T02:16:28.517Z,44.10
2023-05-10T02:18:59.145Z,43.40
2023-05-10T02:21:30.052Z,45.10
2023-05-10T02:24:00.014Z,41.07
2023-05-10T02:26:28.920Z,45.60
2023-05-10T02:28:59.315Z,44.93
2023-05-10T02:31:28.106Z,44.87
2023-05-10T02:33:57.333Z,43.97
2023-05-10T02:36:25.298Z,45.87
2023-05-10T02:38:55.312Z,45.45
2023-05-10T02:41:24.742Z,44.53
2023-05-10T02:43:57.030Z,44.23
2023-05-10T02:46:25.797Z,40.77
2023-05-10T02:48:53.583Z,42.27
2023-05-10T02:51:25.689Z,44.70
2023-05-10T02:53:57.110Z,45.33
2023-05-10T02:56:30.696Z,47.73
2023-05-10T02:58:58.518Z,46.23
2023-05-10T03:01:26.298Z,46.53
2023-05-10T03:03:54.403Z,48.17
2023-05-10T03:06:22.167Z,51.40
2023-05-10T03:08:49.987Z,50.03
2023-05-10T03:11:30.980Z,50.85
2023-05-10T03:14:12.351Z,42.30
2023-05-10T03:16:48.631Z,45.37
2023-05-10T03:19:20.584Z,44.07
2023-05-10T03:21:53.215Z,46.77
2023-05-10T03:24:23.890Z,47.27
2023-05-10T03:26:57.572Z,42.07
2023-05-10T03:29:27.703Z,45.30
2023-05-10T03:31:55.816Z,42.10
2023-05-10T03:34:25.814Z,40.60
2023-05-10T03:36:53.464Z,43.73
2023-05-10T03:39:22.284Z,38.50
2023-05-10T03:41:50.071Z,40.97
2023-05-10T03:44:19.799Z,39.97
2023-05-10T03:46:47.557Z,37.90
2023-05-10T03:49:15.436Z,39.13
2023-05-10T03:51:43.278Z,40.38
2023-05-10T03:54:11.072Z,37.53
2023-05-10T03:56:38.783Z,38.38
2023-05-10T03:59:08.450Z,39.87
2023-05-10T04:01:37.554Z,34.93
2023-05-10T04:04:05.687Z,36.17
2023-05-10T04:06:33.963Z,35.90
2023-05-10T04:09:05.095Z,40.97
2023-05-10T04:11:32.794Z,37.93
2023-05-10T04:14:00.556Z,41.15
2023-05-10T04:16:28.264Z,38.43
2023-05-10T04:18:57.396Z,39.50
2023-05-10T04:21:25.057Z,38.97
2023-05-10T04:23:52.846Z,40.77
2023-05-10T04:26:21.135Z,39.27
2023-05-10T04:28:48.920Z,37.75
2023-05-10T04:31:16.666Z,37.57
2023-05-10T04:33:44.390Z,38.60
2023-05-10T04:36:13.954Z,38.38
2023-05-10T04:38:41.596Z,35.00
2023-05-10T04:41:10.474Z,33.77
2023-05-10T04:43:39.335Z,34.87
2023-05-10T04:46:08.127Z,35.27
2023-05-10T04:48:36.155Z,33.77
2023-05-10T04:51:04.984Z,35.30
2023-05-10T04:53:34.384Z,35.43
2023-05-10T04:56:02.511Z,36.43
2023-05-10T04:58:30.344Z,35.13
2023-05-10T05:00:58.141Z,39.90
2023-05-10T05:03:25.995Z,40.63
2023-05-10T05:05:53.840Z,42.00
2023-05-10T05:08:21.538Z,40.07
2023-05-10T05:10:51.746Z,41.90
2023-05-10T05:13:19.468Z,37.43
2023-05-10T05:15:47.301Z,37.35
2023-05-10T05:18:15.072Z,29.42
2023-05-10T05:20:42.832Z,27.13
2023-05-10T05:23:10.506Z,25.27
2023-05-10T05:25:38.399Z,23.80
2023-05-10T05:28:07.651Z,23.30
2023-05-10T05:30:35.436Z,22.03
2023-05-10T05:33:03.225Z,23.87
2023-05-10T05:35:31.115Z,21.85
2023-05-10T05:37:58.769Z,20.52
2023-05-10T05:40:26.549Z,21.43
2023-05-10T05:42:54.253Z,21.05
2023-05-10T05:45:23.582Z,19.42
2023-05-10T05:47:51.337Z,17.63
2023-05-10T05:50:19.538Z,19.75
2023-05-10T05:52:47.443Z,18.08
2023-05-10T05:55:15.277Z,17.10
2023-05-10T05:57:43.340Z,17.70
2023-05-10T06:00:11.919Z,16.13
2023-05-10T06:02:41.609Z,16.67
2023-05-10T06:05:10.436Z,15.83
2023-05-10T06:10:06.859Z,15.27
2023-05-10T06:12:34.478Z,17.63
2023-05-10T06:15:02.147Z,17.27
2023-05-10T06:17:29.820Z,17.73
2023-05-10T06:19:58.896Z,21.90
2023-05-10T06:22:26.619Z,19.73
2023-05-10T06:24:54.390Z,18.10
2023-05-10T06:27:22.666Z,19.90
2023-05-10T06:29:52.238Z,18.02
2023-05-10T06:32:24.309Z,19.10
2023-05-10T06:34:52.049Z,16.65
2023-05-10T06:37:21.308Z,19.93
2023-05-10T06:39:49.558Z,20.33
2023-05-10T06:42:17.275Z,20.25
2023-05-10T06:44:44.992Z,19.97
2023-05-10T06:47:12.728Z,18.57
2023-05-10T06:49:41.092Z,18.58
2023-05-10T06:52:08.764Z,18.40
2023-05-10T06:54:38.004Z,18.40
2023-05-10T06:57:10.768Z,18.37
2023-05-10T06:59:44.239Z,16.50
2023-05-10T07:02:12.139Z,16.73
2023-05-10T07:04:40.211Z,17.23
2023-05-10T07:07:07.965Z,18.40
2023-05-10T07:09:37.132Z,15.70
2023-05-10T07:12:05.800Z,16.43
2023-05-10T07:14:34.535Z,16.40
2023-05-10T07:17:02.276Z,18.67
2023-05-10T07:19:30.828Z,16.08
2023-05-10T07:21:58.528Z,18.13
2023-05-10T07:24:26.350Z,17.57
2023-05-10T07:26:55.661Z,18.30
2023-05-10T07:29:23.415Z,18.07
2023-05-10T07:31:51.190Z,17.25
2023-05-10T07:34:19.285Z,17.40
2023-05-10T07:36:47.041Z,16.75
2023-05-10T07:39:21.355Z,16.48
2023-05-10T07:41:56.271Z,16.57
2023-05-10T07:44:24.093Z,16.43
2023-05-10T07:46:51.928Z,16.80
2023-05-10T07:49:19.716Z,16.80
2023-05-10T07:51:47.443Z,16.23
2023-05-10T07:54:16.471Z,16.37
2023-05-10T07:56:46.719Z,16.03
2023-05-10T07:59:17.485Z,16.00
2023-05-10T08:01:46.155Z,16.87
2023-05-10T08:06:42.118Z,15.70
2023-05-10T08:09:10.402Z,16.27
2023-05-10T08:11:38.264Z,16.00
2023-05-10T08:14:06.158Z,16.88
2023-05-10T08:16:35.279Z,15.55
2023-05-10T08:19:03.152Z,15.20
2023-05-10T08:21:32.196Z,14.90
2023-05-10T08:23:59.990Z,13.50
2023-05-10T08:26:27.791Z,13.05
2023-05-10T08:28:55.421Z,12.98
2023-05-10T08:31:23.465Z,13.43
2023-05-10T08:33:53.542Z,13.40
2023-05-10T08:36:22.771Z,12.95
2023-05-10T08:38:52.394Z,12.02
2023-05-10T08:41:22.811Z,11.50
2023-05-10T08:43:51.858Z,10.07
2023-05-10T08:46:21.759Z,11.57
2023-05-10T08:48:51.039Z,11.18
2023-05-10T08:51:22.240Z,10.30
2023-05-10T08:53:50.098Z,9.10
2023-05-10T08:56:18.869Z,9.35
2023-05-10T08:58:46.924Z,9.90
2023-05-10T09:01:17.204Z,10.38
2023-05-10T09:03:45.860Z,9.57
2023-05-10T09:08:45.476Z,10.57
2023-05-10T09:11:14.546Z,10.38
2023-05-10T09:13:42.529Z,10.63
2023-05-10T09:16:21.301Z,10.68
2023-05-10T09:18:50.643Z,10.45
2023-05-10T09:21:18.510Z,9.63
2023-05-10T09:23:48.633Z,10.60
2023-05-10T09:26:17.071Z,10.82
2023-05-10T09:28:55.249Z,10.55
2023-05-10T09:31:23.019Z,10.18
2023-05-10T09:33:51.714Z,9.52
2023-05-10T09:38:49.803Z,8.50
2023-05-10T09:41:19.104Z,6.65
2023-05-10T09:43:46.929Z,6.45
2023-05-10T09:46:14.966Z,7.25
2023-05-10T09:48:45.937Z,7.10
2023-05-10T09:51:21.150Z,6.63
2023-05-10T09:53:51.618Z,7.63
2023-05-10T09:56:39.579Z,7.05
2023-05-10T09:59:08.251Z,6.68
2023-05-10T10:04:06.698Z,6.95
2023-05-10T10:06:39.603Z,6.65
2023-05-10T10:09:09.347Z,6.68
2023-05-10T10:11:38.164Z,6.90
2023-05-10T10:14:06.253Z,5.38
2023-05-10T10:16:34.803Z,5.80
2023-05-10T10:21:30.638Z,5.72
2023-05-10T10:23:58.437Z,5.53
2023-05-10T10:26:27.905Z,5.25
2023-05-10T10:29:06.800Z,4.75
2023-05-10T10:31:41.218Z,4.00
2023-05-10T10:34:11.997Z,4.18
2023-05-10T10:36:44.285Z,4.38
2023-05-10T10:39:13.474Z,4.05
2023-05-10T10:41:51.756Z,4.10
2023-05-10T10:44:37.712Z,4.25
2023-05-10T10:47:28.387Z,4.50
2023-05-10T10:50:05.702Z,4.10
2023-05-10T10:52:35.131Z,4.13
2023-05-10T10:55:06.195Z,3.88
2023-05-10T10:57:44.655Z,4.45
2023-05-10T11:02:55.057Z,3.70
2023-05-10T11:05:42.290Z,4.10
2023-05-10T11:08:13.560Z,3.85
2023-05-10T11:10:42.484Z,3.78
2023-05-10T11:13:12.220Z,3.75
2023-05-10T11:15:41.693Z,4.15
2023-05-10T11:18:28.064Z,4.80
2023-05-10T11:20:59.965Z,4.35
2023-05-10T11:23:33.123Z,4.75
2023-05-10T11:26:02.212Z,4.57
2023-05-10T11:28:31.373Z,4.43
2023-05-10T11:30:59.732Z,3.75
2023-05-10T11:33:27.453Z,3.30
2023-05-10T11:35:55.161Z,3.45
2023-05-10T11:38:22.880Z,3.30
2023-05-10T11:40:54.985Z,3.20
2023-05-10T11:43:29.220Z,3.42
2023-05-10T11:45:58.724Z,3.33
2023-05-10T11:48:26.498Z,3.20
2023-05-10T11:50:58.069Z,2.80
2023-05-10T11:53:28.052Z,3.17
2023-05-10T11:55:55.716Z,3.47
2023-05-10T11:58:24.376Z,3.40
2023-05-10T12:03:21.603Z,4.03
2023-05-10T12:05:49.580Z,4.03
2023-05-10T12:08:22.061Z,4.18
2023-05-10T12:10:49.844Z,3.65
2023-05-10T12:13:17.799Z,3.70
2023-05-10T12:15:46.013Z,3.80
2023-05-10T12:18:13.974Z,4.05
2023-05-10T12:20:43.529Z,3.42
2023-05-10T12:23:11.987Z,3.63
2023-05-10T12:25:40.811Z,3.60
2023-05-10T12:28:10.969Z,3.95
2023-05-10T12:30:39.206Z,3.50
2023-05-10T12:33:11.110Z,3.60
2023-05-10T12:35:52.198Z,4.10
2023-05-10T12:38:31.867Z,4.53
2023-05-10T12:41:00.646Z,4.00
2023-05-10T12:43:28.570Z,4.50
2023-05-10T12:45:56.414Z,4.45
2023-05-10T12:48:24.223Z,5.15
2023-05-10T12:50:53.298Z,4.90
2023-05-10T12:53:21.027Z,5.32
2023-05-10T12:55:48.869Z,6.70
2023-05-10T12:58:31.306Z,6.80
2023-05-10T13:01:02.497Z,8.45
2023-05-10T13:03:30.200Z,8.13
2023-05-10T13:05:59.289Z,9.50
2023-05-10T13:08:27.083Z,10.05
2023-05-10T13:10:54.876Z,12.52
2023-05-10T13:13:22.557Z,11.60
2023-05-10T13:15:50.218Z,13.82
2023-05-10T13:18:18.077Z,12.13
2023-05-10T13:20:46.191Z,11.02
2023-05-10T13:23:15.341Z,13.07
2023-05-10T13:25:43.046Z,12.30
2023-05-10T13:28:10.798Z,11.87
2023-05-10T13:30:38.488Z,11.68
2023-05-10T13:33:06.384Z,12.30
2023-05-10T13:35:34.183Z,11.40
2023-05-10T13:38:01.787Z,10.40
2023-05-10T13:40:30.980Z,11.20
2023-05-10T13:42:58.693Z,9.85
2023-05-10T13:45:26.465Z,9.20
2023-05-10T13:47:54.183Z,8.60
2023-05-10T13:50:22.330Z,8.52
2023-05-10T13:52:50.012Z,8.10
2023-05-10T13:55:18.246Z,8.52
2023-05-10T13:57:47.498Z,8.27
2023-05-10T14:00:16.229Z,8.40
2023-05-10T14:02:44.055Z,8.30
2023-05-10T14:05:12.788Z,8.27
2023-05-10T14:07:40.739Z,7.35
2023-05-10T14:10:08.970Z,7.90
2023-05-10T14:12:36.569Z,7.45
2023-05-10T14:15:07.701Z,8.40
2023-05-10T14:17:35.619Z,7.25
2023-05-10T14:20:04.676Z,7.95
2023-05-10T14:22:32.493Z,8.55
2023-05-10T14:25:00.326Z,7.85
2023-05-10T14:27:50.300Z,7.95
2023-05-10T14:30:17.973Z,10.52
2023-05-10T14:32:45.682Z,8.85
2023-05-10T14:35:15.423Z,12.35
2023-05-10T14:37:44.664Z,23.45
2023-05-10T14:40:13.412Z,7.80
2023-05-10T14:42:41.335Z,7.85
2023-05-10T14:45:10.007Z,8.50
2023-05-10T14:47:39.203Z,7.40
2023-05-10T14:50:08.038Z,6.88
2023-05-10T14:52:35.930Z,7.20
2023-05-10T14:55:03.902Z,8.10
2023-05-10T14:57:32.214Z,8.02
2023-05-10T15:00:00.104Z,7.43
2023-05-10T15:02:28.439Z,7.20
2023-05-10T15:04:58.517Z,7.97
2023-05-10T15:07:27.037Z,8.38
2023-05-10T15:09:55.205Z,7.57
2023-05-10T15:12:23.149Z,8.63
2023-05-10T15:14:51.130Z,7.72
2023-05-10T15:17:18.945Z,7.25
2023-05-10T15:19:46.927Z,6.30
2023-05-10T15:22:16.251Z,6.15
2023-05-10T15:24:44.301Z,6.53
2023-05-10T15:27:12.266Z,6.20
2023-05-10T15:29:40.197Z,6.35
2023-05-10T15:32:08.142Z,5.35
2023-05-10T15:34:37.167Z,4.72
2023-05-10T15:37:05.274Z,4.70
2023-05-10T15:39:34.685Z,3.40
2023-05-10T15:42:02.660Z,3.63
2023-05-10T15:44:30.574Z,3.15
2023-05-10T15:46:58.390Z,3.17
2023-05-10T15:49:26.694Z,3.65
2023-05-10T15:51:54.294Z,3.80
2023-05-10T15:54:21.968Z,3.30
2023-05-10T15:56:51.213Z,2.90
2023-05-10T15:59:18.924Z,3.20
2023-05-10T16:01:46.756Z,3.22
2023-05-10T16:04:14.514Z,3.10
2023-05-10T16:06:42.656Z,3.17
2023-05-10T16:09:10.671Z,2.95
2023-05-10T16:11:38.552Z,3.67
2023-05-10T16:14:07.760Z,4.45
2023-05-10T16:16:35.786Z,3.95
2023-05-10T16:19:04.041Z,4.43
2023-05-10T16:21:33.470Z,4.45
2023-05-10T16:24:01.748Z,4.72
2023-05-10T16:26:29.395Z,5.15
2023-05-10T16:28:57.156Z,5.80
2023-05-10T16:31:26.387Z,5.47
2023-05-10T16:33:54.188Z,4.90
2023-05-10T16:36:22.008Z,4.82
2023-05-10T16:38:49.711Z,5.18
2023-05-10T16:41:17.618Z,6.18
2023-05-10T16:43:45.573Z,5.25
2023-05-10T16:46:13.577Z,5.35
2023-05-10T16:48:43.012Z,6.03
2023-05-10T16:51:10.852Z,5.95
2023-05-10T16:53:38.722Z,5.63
2023-05-10T16:56:06.868Z,6.00
2023-05-10T16:58:35.129Z,5.72
2023-05-10T17:01:02.892Z,6.03
2023-05-10T17:03:31.150Z,5.88
2023-05-10T17:06:00.445Z,7.43
2023-05-10T17:08:28.718Z,7.00
2023-05-10T17:10:56.857Z,7.88
2023-05-10T17:13:24.636Z,7.78
2023-05-10T17:15:52.455Z,8.07
2023-05-10T17:18:20.430Z,8.60
2023-05-10T17:20:48.525Z,8.32
2023-05-10T17:23:17.625Z,8.68
2023-05-10T17:25:45.362Z,8.80
2023-05-10T17:28:13.119Z,8.70
2023-05-10T17:30:41.157Z,8.77
2023-05-10T17:33:09.035Z,9.63
2023-05-10T17:35:36.693Z,7.95
2023-05-10T17:38:04.414Z,9.13
2023-05-10T17:40:33.484Z,10.47
2023-05-10T17:43:01.535Z,9.63
2023-05-10T17:45:29.273Z,8.70
2023-05-10T17:47:57.084Z,9.10
2023-05-10T17:50:24.889Z,8.90
2023-05-10T17:52:52.688Z,9.23
2023-05-10T17:55:20.430Z,8.80
2023-05-10T17:57:51.739Z,9.70
2023-05-10T18:00:19.920Z,9.50
2023-05-10T18:02:47.725Z,9.95
2023-05-10T18:05:15.692Z,10.38
2023-05-10T18:07:43.897Z,11.85
2023-05-10T18:10:12.281Z,10.02
2023-05-10T18:12:40.102Z,9.30
2023-05-10T18:15:10.334Z,9.32
2023-05-10T18:17:38.124Z,9.32
2023-05-10T18:20:07.341Z,9.23
2023-05-10T18:22:35.111Z,10.07
2023-05-10T18:25:02.982Z,9.52
2023-05-10T18:27:30.667Z,9.68
2023-05-10T18:29:58.591Z,9.47
2023-05-10T18:32:27.941Z,8.82
2023-05-10T18:34:56.518Z,8.88
2023-05-10T18:37:24.963Z,9.63
2023-05-10T18:39:54.310Z,10.18
2023-05-10T18:42:23.383Z,9.05
2023-05-10T18:44:52.093Z,9.48
2023-05-10T18:47:20.779Z,8.63
2023-05-10T18:49:50.940Z,8.90
2023-05-10T18:52:19.801Z,9.13
2023-05-10T18:54:48.555Z,9.07
2023-05-10T18:57:17.350Z,9.32
2023-05-10T18:59:46.031Z,9.05
2023-05-10T19:04:44.040Z,8.38
2023-05-10T19:09:42.775Z,8.15
2023-05-10T19:12:11.642Z,7.95
2023-05-10T19:14:40.439Z,9.65
2023-05-10T19:17:09.046Z,8.13
2023-05-10T19:19:38.862Z,8.35
2023-05-10T19:22:07.522Z,8.60
2023-05-10T19:27:06.270Z,8.10
2023-05-10T19:29:34.999Z,8.27
2023-05-10T19:34:31.048Z,8.63
2023-05-10T19:36:59.251Z,9.13
2023-05-10T19:39:26.974Z,8.48
2023-05-10T19:41:56.358Z,9.82
2023-05-10T19:44:24.082Z,8.43
2023-05-10T19:46:53.265Z,8.17
2023-05-10T19:49:21.701Z,9.25
2023-05-10T19:51:49.706Z,8.77
2023-05-10T19:54:17.601Z,7.80
2023-05-10T19:56:45.358Z,8.07
2023-05-10T19:59:15.473Z,7.93
2023-05-10T20:01:43.270Z,9.00
2023-05-10T20:04:11.412Z,8.65
2023-05-10T20:06:39.413Z,8.20
2023-05-10T20:09:07.227Z,8.13
2023-05-10T20:11:35.621Z,7.90
2023-05-10T20:14:03.416Z,8.60
2023-05-10T20:16:32.793Z,8.82
2023-05-10T20:19:01.166Z,8.37
2023-05-10T20:21:29.013Z,9.35
2023-05-10T20:23:56.814Z,8.98
2023-05-10T20:26:25.536Z,9.45
2023-05-10T20:28:53.360Z,9.90
2023-05-10T20:31:21.373Z,9.82
2023-05-10T20:33:50.679Z,8.60
2023-05-10T20:36:18.510Z,9.10
2023-05-10T20:38:46.290Z,8.85
2023-05-10T20:41:14.208Z,9.07
2023-05-10T20:43:41.905Z,9.05
2023-05-10T20:46:09.893Z,9.77
2023-05-10T20:48:37.741Z,9.10
2023-05-10T20:51:06.962Z,8.87
2023-05-10T20:53:34.819Z,9.47
2023-05-10T20:56:02.663Z,9.93
2023-05-10T20:58:30.784Z,9.38
2023-05-10T21:00:58.590Z,9.38
2023-05-10T21:03:26.362Z,10.38
2023-05-10T21:05:54.163Z,10.77
2023-05-10T21:08:23.204Z,9.88
2023-05-10T21:10:51.060Z,10.10
2023-05-10T21:13:18.764Z,10.15
2023-05-10T21:15:46.623Z,11.63
2023-05-10T21:18:14.518Z,11.27
2023-05-10T21:20:42.327Z,11.40
2023-05-10T21:23:10.168Z,10.20
2023-05-10T21:25:39.342Z,10.35
2023-05-10T21:28:07.313Z,11.10
2023-05-10T21:30:36.056Z,10.73
2023-05-10T21:33:04.492Z,11.17
2023-05-10T21:35:32.324Z,10.70
2023-05-10T21:38:00.148Z,11.07
2023-05-10T21:40:29.497Z,11.90
2023-05-10T21:42:58.672Z,10.83
2023-05-10T21:45:26.453Z,10.83
2023-05-10T21:47:54.292Z,11.52
2023-05-10T21:50:22.807Z,11.70
2023-05-10T21:52:50.587Z,10.88
2023-05-10T21:55:19.319Z,11.55
2023-05-10T22:00:17.108Z,10.93
2023-05-10T22:02:45.043Z,12.63
2023-05-10T22:05:12.891Z,12.40
2023-05-10T22:07:40.501Z,12.30
2023-05-10T22:10:09.287Z,11.77
2023-05-10T22:12:37.011Z,12.03
2023-05-10T22:17:39.715Z,11.37
2023-05-10T22:20:09.097Z,12.57
2023-05-10T22:22:37.635Z,12.70
2023-05-10T22:25:06.612Z,12.02
2023-05-10T22:27:34.554Z,12.70
2023-05-10T22:30:02.850Z,12.30
2023-05-10T22:32:30.665Z,13.23
2023-05-10T22:34:59.757Z,13.25
2023-05-10T22:37:27.624Z,13.67
2023-05-10T22:39:55.280Z,11.63
2023-05-10T22:42:23.003Z,12.77
2023-05-10T22:44:50.706Z,11.90
2023-05-10T22:47:18.390Z,13.13
2023-05-10T22:49:46.140Z,14.17
2023-05-10T22:52:15.257Z,12.73
2023-05-10T22:54:44.194Z,14.23
2023-05-10T22:57:12.186Z,13.53
2023-05-10T22:59:39.974Z,13.57
2023-05-10T23:02:07.901Z,12.48
2023-05-10T23:04:35.869Z,13.43
2023-05-10T23:07:03.755Z,13.48
2023-05-10T23:09:33.163Z,14.75
2023-05-10T23:12:00.877Z,14.97
2023-05-10T23:14:28.641Z,13.90
2023-05-10T23:16:56.349Z,13.98
2023-05-10T23:19:24.596Z,15.30
2023-05-10T23:21:52.304Z,14.32
2023-05-10T23:24:20.090Z,15.10
2023-05-10T23:26:49.213Z,15.70
2023-05-10T23:29:16.884Z,13.67
2023-05-10T23:31:45.822Z,14.60
2023-05-10T23:34:13.773Z,13.70
2023-05-10T23:36:41.631Z,14.80
2023-05-10T23:39:09.402Z,13.05
2023-05-10T23:41:36.994Z,16.48
2023-05-10T23:44:06.283Z,14.50
2023-05-10T23:46:34.007Z,13.77
2023-05-10T23:49:01.793Z,15.33
2023-05-10T23:51:29.467Z,16.60
2023-05-10T23:53:57.167Z,18.40
2023-05-10T23:56:24.840Z,17.87
2023-05-10T23:58:52.509Z,16.57
